sensor_id;sensor_type;location;lat;lon;timestamp;P1;durP1;ratioP1;P2;durP2;ratioP2
7747;SDS011;3918;42.564;23.164;2024-03-06T05:02:04;25.37;;;23.30;;
7747;SDS011;3918;42.564;23.164;2024-03-06T05:04:33;27.37;;;25.33;;
7747;SDS011;3918;42.564;23.164;2024-03-06T05:07:03;33.53;;;30.63;;
7747;SDS011;3918;42.564;23.164;2024-03-06T05:09:30;32.80;;;29.77;;
7747;SDS011;3918;42.564;23.164;2024-03-06T05:11:57;24.40;;;22.35;;
7747;SDS011;3918;42.564;23.164;2024-03-06T05:14:23;27.47;;;24.70;;
7747;SDS011;3918;42.564;23.164;2024-03-06T05:16:51;26.57;;;24.03;;
7747;SDS011;3918;42.564;23.164;2024-03-06T05:19:22;33.22;;;30.60;;
7747;SDS011;3918;42.564;23.164;2024-03-06T05:21:48;32.90;;;30.13;;
7747;SDS011;3918;42.564;23.164;2024-03-06T05:24:15;26.70;;;24.13;;
7747;SDS011;3918;42.564;23.164;2024-03-06T05:26:42;27.95;;;25.25;;
7747;SDS011;3918;42.564;23.164;2024-03-06T05:29:09;27.00;;;24.67;;
7747;SDS011;3918;42.564;23.164;2024-03-06T05:31:35;30.33;;;26.25;;
7747;SDS011;3918;42.564;23.164;2024-03-06T05:34:02;37.78;;;34.08;;
7747;SDS011;3918;42.564;23.164;2024-03-06T05:36:31;37.38;;;34.03;;
7747;SDS011;3918;42.564;23.164;2024-03-06T05:39:01;40.03;;;36.53;;
7747;SDS011;3918;42.564;23.164;2024-03-06T05:41:30;35.90;;;31.08;;
7747;SDS011;3918;42.564;23.164;2024-03-06T05:43:57;35.25;;;31.50;;
7747;SDS011;3918;42.564;23.164;2024-03-06T05:46:23;37.30;;;33.22;;
7747;SDS011;3918;42.564;23.164;2024-03-06T05:48:51;31.58;;;28.42;;
7747;SDS011;3918;42.564;23.164;2024-03-06T05:51:18;31.80;;;28.75;;
7747;SDS011;3918;42.564;23.164;2024-03-06T05:53:46;25.77;;;23.15;;
7747;SDS011;3918;42.564;23.164;2024-03-06T05:56:12;28.95;;;23.25;;
7747;SDS011;3918;42.564;23.164;2024-03-06T05:58:39;23.45;;;20.98;;
7747;SDS011;3918;42.564;23.164;2024-03-06T06:01:06;25.80;;;18.38;;
7747;SDS011;3918;42.564;23.164;2024-03-06T06:03:33;20.83;;;18.55;;
7747;SDS011;3918;42.564;23.164;2024-03-06T06:06:00;22.13;;;17.13;;
7747;SDS011;3918;42.564;23.164;2024-03-06T06:08:28;22.25;;;18.40;;
7747;SDS011;3918;42.564;23.164;2024-03-06T06:10:56;21.08;;;18.60;;
7747;SDS011;3918;42.564;23.164;2024-03-06T06:13:23;20.92;;;17.00;;
7747;SDS011;3918;42.564;23.164;2024-03-06T06:15:50;21.13;;;16.50;;
7747;SDS011;3918;42.564;23.164;2024-03-06T06:18:17;19.42;;;14.95;;
7747;SDS011;3918;42.564;23.164;2024-03-06T06:20:45;16.40;;;14.70;;
7747;SDS011;3918;42.564;23.164;2024-03-06T06:23:12;17.08;;;13.32;;
7747;SDS011;3918;42.564;23.164;2024-03-06T06:25:39;13.75;;;9.48;;
7747;SDS011;3918;42.564;23.164;2024-03-06T06:28:10;16.08;;;11.85;;
7747;SDS011;3918;42.564;23.164;2024-03-06T06:30:36;13.30;;;11.02;;
7747;SDS011;3918;42.564;23.164;2024-03-06T06:33:04;15.40;;;11.52;;
7747;SDS011;3918;42.564;23.164;2024-03-06T06:35:31;13.63;;;11.10;;
7747;SDS011;3918;42.564;23.164;2024-03-06T06:37:59;12.65;;;10.70;;
7747;SDS011;3918;42.564;23.164;2024-03-06T06:40:26;14.05;;;9.75;;
7747;SDS011;3918;42.564;23.164;2024-03-06T06:42:54;15.57;;;10.13;;
7747;SDS011;3918;42.564;23.164;2024-03-06T06:45:22;12.55;;;10.45;;
7747;SDS011;3918;42.564;23.164;2024-03-06T06:47:50;19.80;;;11.20;;
7747;SDS011;3918;42.564;23.164;2024-03-06T06:50:18;18.80;;;11.23;;
7747;SDS011;3918;42.564;23.164;2024-03-06T06:52:48;14.98;;;9.82;;
7747;SDS011;3918;42.564;23.164;2024-03-06T06:55:14;10.68;;;8.23;;
7747;SDS011;3918;42.564;23.164;2024-03-06T06:57:41;16.63;;;8.93;;
7747;SDS011;3918;42.564;23.164;2024-03-06T07:00:08;18.85;;;8.82;;
7747;SDS011;3918;42.564;23.164;2024-03-06T07:02:38;11.60;;;8.13;;
7747;SDS011;3918;42.564;23.164;2024-03-06T07:05:06;12.65;;;7.32;;
7747;SDS011;3918;42.564;23.164;2024-03-06T07:07:34;21.48;;;7.57;;
7747;SDS011;3918;42.564;23.164;2024-03-06T07:10:01;16.35;;;8.13;;
7747;SDS011;3918;42.564;23.164;2024-03-06T07:12:31;12.68;;;8.10;;
7747;SDS011;3918;42.564;23.164;2024-03-06T07:14:58;13.05;;;6.60;;
7747;SDS011;3918;42.564;23.164;2024-03-06T07:17:25;13.52;;;7.18;;
7747;SDS011;3918;42.564;23.164;2024-03-06T07:19:53;10.35;;;7.80;;
7747;SDS011;3918;42.564;23.164;2024-03-06T07:22:20;15.32;;;7.63;;
7747;SDS011;3918;42.564;23.164;2024-03-06T07:24:47;9.88;;;7.10;;
7747;SDS011;3918;42.564;23.164;2024-03-06T07:27:14;14.57;;;7.10;;
7747;SDS011;3918;42.564;23.164;2024-03-06T07:29:41;12.02;;;7.45;;
7747;SDS011;3918;42.564;23.164;2024-03-06T07:32:08;9.85;;;6.88;;
7747;SDS011;3918;42.564;23.164;2024-03-06T07:34:34;10.80;;;7.60;;
7747;SDS011;3918;42.564;23.164;2024-03-06T07:37:02;10.15;;;6.97;;
7747;SDS011;3918;42.564;23.164;2024-03-06T07:39:29;20.17;;;7.32;;
7747;SDS011;3918;42.564;23.164;2024-03-06T07:41:56;12.70;;;7.68;;
7747;SDS011;3918;42.564;23.164;2024-03-06T07:44:23;13.45;;;8.38;;
7747;SDS011;3918;42.564;23.164;2024-03-06T07:46:50;14.18;;;7.45;;
7747;SDS011;3918;42.564;23.164;2024-03-06T07:49:18;11.07;;;7.85;;
7747;SDS011;3918;42.564;23.164;2024-03-06T07:51:46;11.80;;;6.82;;
7747;SDS011;3918;42.564;23.164;2024-03-06T07:54:15;12.35;;;6.40;;
7747;SDS011;3918;42.564;23.164;2024-03-06T07:56:41;8.52;;;6.68;;
7747;SDS011;3918;42.564;23.164;2024-03-06T07:59:08;10.73;;;7.35;;
7747;SDS011;3918;42.564;23.164;2024-03-06T08:01:37;11.75;;;6.32;;
7747;SDS011;3918;42.564;23.164;2024-03-06T08:04:04;7.32;;;5.32;;
7747;SDS011;3918;42.564;23.164;2024-03-06T08:06:31;18.42;;;6.32;;
7747;SDS011;3918;42.564;23.164;2024-03-06T08:08:58;8.50;;;6.18;;
7747;SDS011;3918;42.564;23.164;2024-03-06T08:11:28;11.60;;;6.43;;
7747;SDS011;3918;42.564;23.164;2024-03-06T08:13:57;16.95;;;6.00;;
7747;SDS011;3918;42.564;23.164;2024-03-06T08:16:24;9.95;;;5.97;;
7747;SDS011;3918;42.564;23.164;2024-03-06T08:18:50;8.90;;;6.55;;
7747;SDS011;3918;42.564;23.164;2024-03-06T08:21:17;15.20;;;6.18;;
7747;SDS011;3918;42.564;23.164;2024-03-06T08:23:44;11.35;;;6.25;;
7747;SDS011;3918;42.564;23.164;2024-03-06T08:26:12;11.20;;;6.10;;
7747;SDS011;3918;42.564;23.164;2024-03-06T08:28:40;28.55;;;6.78;;
7747;SDS011;3918;42.564;23.164;2024-03-06T08:31:07;8.52;;;6.35;;
7747;SDS011;3918;42.564;23.164;2024-03-06T08:33:34;11.85;;;6.70;;
7747;SDS011;3918;42.564;23.164;2024-03-06T08:36:00;10.52;;;5.85;;
7747;SDS011;3918;42.564;23.164;2024-03-06T08:38:27;23.00;;;6.43;;
7747;SDS011;3918;42.564;23.164;2024-03-06T08:40:54;11.82;;;6.30;;
7747;SDS011;3918;42.564;23.164;2024-03-06T08:43:21;10.55;;;5.90;;
7747;SDS011;3918;42.564;23.164;2024-03-06T08:45:49;11.25;;;6.38;;
7747;SDS011;3918;42.564;23.164;2024-03-06T08:48:15;11.20;;;6.75;;
7747;SDS011;3918;42.564;23.164;2024-03-06T08:50:43;8.75;;;6.55;;
7747;SDS011;3918;42.564;23.164;2024-03-06T08:53:10;12.40;;;6.80;;
7747;SDS011;3918;42.564;23.164;2024-03-06T08:55:39;11.07;;;6.82;;
7747;SDS011;3918;42.564;23.164;2024-03-06T08:58:06;12.88;;;7.05;;
7747;SDS011;3918;42.564;23.164;2024-03-06T09:00:34;13.23;;;6.63;;
7747;SDS011;3918;42.564;23.164;2024-03-06T09:03:02;10.38;;;6.15;;
7747;SDS011;3918;42.564;23.164;2024-03-06T09:05:30;12.18;;;6.70;;
7747;SDS011;3918;42.564;23.164;2024-03-06T09:07:57;9.13;;;6.40;;
7747;SDS011;3918;42.564;23.164;2024-03-06T09:10:24;10.25;;;6.93;;
7747;SDS011;3918;42.564;23.164;2024-03-06T09:12:50;10.25;;;6.80;;
7747;SDS011;3918;42.564;23.164;2024-03-06T09:15:17;20.98;;;7.65;;
7747;SDS011;3918;42.564;23.164;2024-03-06T09:17:44;28.63;;;9.02;;
7747;SDS011;3918;42.564;23.164;2024-03-06T09:20:13;23.52;;;8.07;;
7747;SDS011;3918;42.564;23.164;2024-03-06T09:22:41;37.85;;;8.93;;
7747;SDS011;3918;42.564;23.164;2024-03-06T09:25:08;36.13;;;10.32;;
7747;SDS011;3918;42.564;23.164;2024-03-06T09:27:37;32.38;;;8.77;;
7747;SDS011;3918;42.564;23.164;2024-03-06T09:30:04;22.15;;;8.68;;
7747;SDS011;3918;42.564;23.164;2024-03-06T09:32:33;28.08;;;7.88;;
7747;SDS011;3918;42.564;23.164;2024-03-06T09:35:00;19.77;;;7.50;;
7747;SDS011;3918;42.564;23.164;2024-03-06T09:37:29;21.95;;;7.63;;
7747;SDS011;3918;42.564;23.164;2024-03-06T09:39:56;23.88;;;8.18;;
7747;SDS011;3918;42.564;23.164;2024-03-06T09:42:23;18.00;;;8.10;;
7747;SDS011;3918;42.564;23.164;2024-03-06T09:44:50;27.23;;;8.32;;
7747;SDS011;3918;42.564;23.164;2024-03-06T09:47:18;28.38;;;7.35;;
7747;SDS011;3918;42.564;23.164;2024-03-06T09:49:50;16.02;;;7.40;;
7747;SDS011;3918;42.564;23.164;2024-03-06T09:52:18;23.33;;;9.13;;
7747;SDS011;3918;42.564;23.164;2024-03-06T09:54:46;18.30;;;8.13;;
7747;SDS011;3918;42.564;23.164;2024-03-06T09:57:14;23.75;;;8.50;;
7747;SDS011;3918;42.564;23.164;2024-03-06T09:59:41;21.33;;;7.97;;
7747;SDS011;3918;42.564;23.164;2024-03-06T10:02:13;18.23;;;8.57;;
7747;SDS011;3918;42.564;23.164;2024-03-06T10:04:50;44.80;;;9.73;;
7747;SDS011;3918;42.564;23.164;2024-03-06T10:07:17;19.45;;;7.50;;
7747;SDS011;3918;42.564;23.164;2024-03-06T10:09:46;20.23;;;8.43;;
7747;SDS011;3918;42.564;23.164;2024-03-06T10:12:16;15.43;;;7.10;;
7747;SDS011;3918;42.564;23.164;2024-03-06T10:14:48;22.88;;;7.70;;
7747;SDS011;3918;42.564;23.164;2024-03-06T10:17:18;13.45;;;7.20;;
7747;SDS011;3918;42.564;23.164;2024-03-06T10:22:44;14.68;;;7.32;;
7747;SDS011;3918;42.564;23.164;2024-03-06T10:25:13;12.45;;;6.70;;
7747;SDS011;3918;42.564;23.164;2024-03-06T10:27:40;15.02;;;5.82;;
7747;SDS011;3918;42.564;23.164;2024-03-06T10:30:07;10.43;;;5.85;;
7747;SDS011;3918;42.564;23.164;2024-03-06T10:32:36;12.23;;;6.72;;
7747;SDS011;3918;42.564;23.164;2024-03-06T10:35:04;10.60;;;6.07;;
7747;SDS011;3918;42.564;23.164;2024-03-06T10:37:32;13.88;;;6.22;;
7747;SDS011;3918;42.564;23.164;2024-03-06T10:40:01;11.93;;;6.25;;
7747;SDS011;3918;42.564;23.164;2024-03-06T10:42:32;13.13;;;6.80;;
7747;SDS011;3918;42.564;23.164;2024-03-06T10:45:01;25.63;;;6.88;;
7747;SDS011;3918;42.564;23.164;2024-03-06T10:47:30;16.48;;;6.20;;
7747;SDS011;3918;42.564;23.164;2024-03-06T10:49:59;12.13;;;5.78;;
7747;SDS011;3918;42.564;23.164;2024-03-06T10:52:35;20.13;;;6.82;;
7747;SDS011;3918;42.564;23.164;2024-03-06T10:55:04;16.33;;;6.22;;
7747;SDS011;3918;42.564;23.164;2024-03-06T10:57:33;12.77;;;5.93;;
7747;SDS011;3918;42.564;23.164;2024-03-06T11:00:03;9.88;;;6.00;;
7747;SDS011;3918;42.564;23.164;2024-03-06T11:02:31;21.92;;;10.77;;
7747;SDS011;3918;42.564;23.164;2024-03-06T11:04:58;7.90;;;5.95;;
7747;SDS011;3918;42.564;23.164;2024-03-06T11:07:30;7.70;;;5.75;;
7747;SDS011;3918;42.564;23.164;2024-03-06T11:09:58;11.32;;;5.85;;
7747;SDS011;3918;42.564;23.164;2024-03-06T11:12:36;36.50;;;6.60;;
7747;SDS011;3918;42.564;23.164;2024-03-06T11:15:13;8.05;;;5.32;;
7747;SDS011;3918;42.564;23.164;2024-03-06T11:17:40;10.88;;;6.80;;
7747;SDS011;3918;42.564;23.164;2024-03-06T11:20:08;14.30;;;6.63;;
7747;SDS011;3918;42.564;23.164;2024-03-06T11:28:33;10.35;;;5.72;;
7747;SDS011;3918;42.564;23.164;2024-03-06T11:31:03;10.38;;;5.53;;
7747;SDS011;3918;42.564;23.164;2024-03-06T11:33:37;9.68;;;5.80;;
7747;SDS011;3918;42.564;23.164;2024-03-06T11:36:15;8.70;;;6.13;;
7747;SDS011;3918;42.564;23.164;2024-03-06T11:38:46;8.88;;;5.45;;
7747;SDS011;3918;42.564;23.164;2024-03-06T11:41:14;16.42;;;5.85;;
7747;SDS011;3918;42.564;23.164;2024-03-06T11:43:45;8.20;;;5.50;;
7747;SDS011;3918;42.564;23.164;2024-03-06T11:46:11;11.18;;;5.47;;
7747;SDS011;3918;42.564;23.164;2024-03-06T11:48:37;7.22;;;5.78;;
7747;SDS011;3918;42.564;23.164;2024-03-06T11:51:04;7.35;;;4.93;;
7747;SDS011;3918;42.564;23.164;2024-03-06T11:53:32;6.57;;;5.05;;
7747;SDS011;3918;42.564;23.164;2024-03-06T11:56:00;7.00;;;5.00;;
7747;SDS011;3918;42.564;23.164;2024-03-06T11:58:27;9.85;;;4.97;;
7747;SDS011;3918;42.564;23.164;2024-03-06T12:00:55;8.90;;;4.85;;
7747;SDS011;3918;42.564;23.164;2024-03-06T12:03:22;14.52;;;5.63;;
7747;SDS011;3918;42.564;23.164;2024-03-06T12:05:50;12.00;;;6.03;;
7747;SDS011;3918;42.564;23.164;2024-03-06T12:08:17;9.27;;;5.20;;
7747;SDS011;3918;42.564;23.164;2024-03-06T12:10:45;12.10;;;4.78;;
7747;SDS011;3918;42.564;23.164;2024-03-06T12:13:12;7.85;;;4.35;;
7747;SDS011;3918;42.564;23.164;2024-03-06T12:15:42;5.93;;;4.70;;
7747;SDS011;3918;42.564;23.164;2024-03-06T12:18:10;7.32;;;4.22;;
7747;SDS011;3918;42.564;23.164;2024-03-06T12:20:40;7.60;;;5.00;;
7747;SDS011;3918;42.564;23.164;2024-03-06T12:23:18;8.43;;;4.20;;
7747;SDS011;3918;42.564;23.164;2024-03-06T12:25:47;5.75;;;4.10;;
7747;SDS011;3918;42.564;23.164;2024-03-06T12:28:14;8.32;;;4.50;;
7747;SDS011;3918;42.564;23.164;2024-03-06T12:30:42;5.22;;;3.97;;
7747;SDS011;3918;42.564;23.164;2024-03-06T12:33:11;12.75;;;5.05;;
7747;SDS011;3918;42.564;23.164;2024-03-06T12:35:43;10.13;;;4.65;;
7747;SDS011;3918;42.564;23.164;2024-03-06T12:38:13;8.65;;;4.75;;
7747;SDS011;3918;42.564;23.164;2024-03-06T12:40:40;5.70;;;4.57;;
7747;SDS011;3918;42.564;23.164;2024-03-06T12:43:07;9.25;;;4.78;;
7747;SDS011;3918;42.564;23.164;2024-03-06T12:45:34;8.20;;;4.88;;
7747;SDS011;3918;42.564;23.164;2024-03-06T12:48:02;8.65;;;4.22;;
7747;SDS011;3918;42.564;23.164;2024-03-06T12:50:32;7.85;;;4.30;;
7747;SDS011;3918;42.564;23.164;2024-03-06T12:52:58;23.67;;;4.90;;
7747;SDS011;3918;42.564;23.164;2024-03-06T12:55:25;10.13;;;4.78;;
7747;SDS011;3918;42.564;23.164;2024-03-06T12:57:53;9.23;;;4.72;;
7747;SDS011;3918;42.564;23.164;2024-03-06T13:00:20;6.70;;;4.57;;
7747;SDS011;3918;42.564;23.164;2024-03-06T13:02:50;7.28;;;4.88;;
7747;SDS011;3918;42.564;23.164;2024-03-06T13:05:17;8.82;;;5.03;;
7747;SDS011;3918;42.564;23.164;2024-03-06T13:07:46;9.25;;;4.72;;
7747;SDS011;3918;42.564;23.164;2024-03-06T13:10:12;14.80;;;5.25;;
7747;SDS011;3918;42.564;23.164;2024-03-06T13:12:39;10.88;;;5.40;;
7747;SDS011;3918;42.564;23.164;2024-03-06T13:15:06;5.45;;;4.50;;
7747;SDS011;3918;42.564;23.164;2024-03-06T13:17:33;7.60;;;4.43;;
7747;SDS011;3918;42.564;23.164;2024-03-06T13:20:00;5.72;;;5.07;;
7747;SDS011;3918;42.564;23.164;2024-03-06T13:22:27;16.48;;;5.70;;
7747;SDS011;3918;42.564;23.164;2024-03-06T13:24:56;10.45;;;5.30;;
7747;SDS011;3918;42.564;23.164;2024-03-06T13:27:23;10.43;;;4.68;;
7747;SDS011;3918;42.564;23.164;2024-03-06T13:29:50;15.25;;;4.68;;
7747;SDS011;3918;42.564;23.164;2024-03-06T13:32:16;4.28;;;3.88;;
7747;SDS011;3918;42.564;23.164;2024-03-06T13:34:43;5.97;;;4.47;;
7747;SDS011;3918;42.564;23.164;2024-03-06T13:37:10;10.10;;;5.70;;
7747;SDS011;3918;42.564;23.164;2024-03-06T13:39:36;6.82;;;4.35;;
7747;SDS011;3918;42.564;23.164;2024-03-06T13:42:05;6.75;;;5.18;;
7747;SDS011;3918;42.564;23.164;2024-03-06T13:44:33;7.25;;;5.32;;
7747;SDS011;3918;42.564;23.164;2024-03-06T13:47:00;7.85;;;4.75;;
7747;SDS011;3918;42.564;23.164;2024-03-06T13:49:37;5.32;;;4.35;;
7747;SDS011;3918;42.564;23.164;2024-03-06T13:52:05;5.10;;;4.60;;
7747;SDS011;3918;42.564;23.164;2024-03-06T13:54:35;10.15;;;4.60;;
7747;SDS011;3918;42.564;23.164;2024-03-06T13:57:03;7.10;;;5.22;;
7747;SDS011;3918;42.564;23.164;2024-03-06T13:59:32;7.70;;;5.20;;
7747;SDS011;3918;42.564;23.164;2024-03-06T14:02:00;6.65;;;4.57;;
7747;SDS011;3918;42.564;23.164;2024-03-06T14:04:27;5.50;;;5.00;;
7747;SDS011;3918;42.564;23.164;2024-03-06T14:06:55;6.63;;;5.45;;
7747;SDS011;3918;42.564;23.164;2024-03-06T14:09:23;8.23;;;6.65;;
7747;SDS011;3918;42.564;23.164;2024-03-06T14:11:50;9.80;;;7.35;;
7747;SDS011;3918;42.564;23.164;2024-03-06T14:14:18;12.18;;;8.07;;
7747;SDS011;3918;42.564;23.164;2024-03-06T14:16:46;8.13;;;7.22;;
7747;SDS011;3918;42.564;23.164;2024-03-06T14:19:13;9.32;;;7.43;;
7747;SDS011;3918;42.564;23.164;2024-03-06T14:21:40;7.88;;;6.82;;
7747;SDS011;3918;42.564;23.164;2024-03-06T14:24:06;11.40;;;7.63;;
7747;SDS011;3918;42.564;23.164;2024-03-06T14:26:34;9.77;;;7.53;;
7747;SDS011;3918;42.564;23.164;2024-03-06T14:29:02;9.68;;;8.45;;
7747;SDS011;3918;42.564;23.164;2024-03-06T14:31:32;12.68;;;8.20;;
7747;SDS011;3918;42.564;23.164;2024-03-06T14:33:59;10.80;;;9.05;;
7747;SDS011;3918;42.564;23.164;2024-03-06T14:36:26;12.50;;;10.38;;
7747;SDS011;3918;42.564;23.164;2024-03-06T14:38:53;10.20;;;9.05;;
7747;SDS011;3918;42.564;23.164;2024-03-06T14:41:20;10.88;;;8.90;;
7747;SDS011;3918;42.564;23.164;2024-03-06T14:43:47;8.73;;;7.47;;
7747;SDS011;3918;42.564;23.164;2024-03-06T14:46:13;8.32;;;7.13;;
7747;SDS011;3918;42.564;23.164;2024-03-06T14:48:42;9.82;;;6.50;;
7747;SDS011;3918;42.564;23.164;2024-03-06T14:51:09;7.95;;;7.15;;
7747;SDS011;3918;42.564;23.164;2024-03-06T14:53:36;7.32;;;6.30;;
7747;SDS011;3918;42.564;23.164;2024-03-06T14:56:03;7.28;;;6.35;;
7747;SDS011;3918;42.564;23.164;2024-03-06T14:58:31;6.93;;;6.30;;
7747;SDS011;3918;42.564;23.164;2024-03-06T15:00:57;9.10;;;6.75;;
7747;SDS011;3918;42.564;23.164;2024-03-06T15:03:24;7.45;;;6.40;;
7747;SDS011;3918;42.564;23.164;2024-03-06T15:05:53;9.32;;;6.28;;
7747;SDS011;3918;42.564;23.164;2024-03-06T15:08:19;8.45;;;6.95;;
7747;SDS011;3918;42.564;23.164;2024-03-06T15:10:46;9.60;;;6.28;;
7747;SDS011;3918;42.564;23.164;2024-03-06T15:13:13;7.85;;;6.55;;
7747;SDS011;3918;42.564;23.164;2024-03-06T15:15:41;7.90;;;6.25;;
7747;SDS011;3918;42.564;23.164;2024-03-06T15:18:08;8.20;;;7.28;;
7747;SDS011;3918;42.564;23.164;2024-03-06T15:20:34;8.07;;;6.80;;
7747;SDS011;3918;42.564;23.164;2024-03-06T15:23:03;9.63;;;7.00;;
7747;SDS011;3918;42.564;23.164;2024-03-06T15:25:30;6.43;;;5.82;;
7747;SDS011;3918;42.564;23.164;2024-03-06T15:27:57;6.22;;;5.30;;
7747;SDS011;3918;42.564;23.164;2024-03-06T15:30:23;9.70;;;6.55;;
7747;SDS011;3918;42.564;23.164;2024-03-06T15:32:50;8.32;;;6.25;;
7747;SDS011;3918;42.564;23.164;2024-03-06T15:35:17;8.25;;;7.13;;
7747;SDS011;3918;42.564;23.164;2024-03-06T15:37:44;10.02;;;7.35;;
7747;SDS011;3918;42.564;23.164;2024-03-06T15:40:12;9.82;;;8.80;;
7747;SDS011;3918;42.564;23.164;2024-03-06T15:42:39;16.25;;;9.02;;
7747;SDS011;3918;42.564;23.164;2024-03-06T15:45:06;8.85;;;8.15;;
7747;SDS011;3918;42.564;23.164;2024-03-06T15:47:33;10.52;;;9.30;;
7747;SDS011;3918;42.564;23.164;2024-03-06T15:50:02;10.25;;;8.70;;
7747;SDS011;3918;42.564;23.164;2024-03-06T15:52:29;10.05;;;8.35;;
7747;SDS011;3918;42.564;23.164;2024-03-06T15:54:56;8.98;;;8.18;;
7747;SDS011;3918;42.564;23.164;2024-03-06T15:57:24;9.68;;;8.60;;
7747;SDS011;3918;42.564;23.164;2024-03-06T15:59:51;9.85;;;8.90;;
7747;SDS011;3918;42.564;23.164;2024-03-06T16:02:17;10.80;;;9.20;;
7747;SDS011;3918;42.564;23.164;2024-03-06T16:04:44;14.05;;;10.30;;
7747;SDS011;3918;42.564;23.164;2024-03-06T16:07:11;10.95;;;9.85;;
7747;SDS011;3918;42.564;23.164;2024-03-06T16:09:39;13.63;;;12.45;;
7747;SDS011;3918;42.564;23.164;2024-03-06T16:12:06;13.45;;;12.25;;
7747;SDS011;3918;42.564;23.164;2024-03-06T16:14:34;10.52;;;9.63;;
7747;SDS011;3918;42.564;23.164;2024-03-06T16:17:01;11.20;;;9.15;;
7747;SDS011;3918;42.564;23.164;2024-03-06T16:19:31;10.50;;;9.50;;
7747;SDS011;3918;42.564;23.164;2024-03-06T16:21:59;10.00;;;9.10;;
7747;SDS011;3918;42.564;23.164;2024-03-06T16:24:26;10.30;;;9.30;;
7747;SDS011;3918;42.564;23.164;2024-03-06T16:26:53;10.10;;;9.20;;
7747;SDS011;3918;42.564;23.164;2024-03-06T16:29:20;10.20;;;8.98;;
7747;SDS011;3918;42.564;23.164;2024-03-06T16:31:48;11.98;;;10.60;;
7747;SDS011;3918;42.564;23.164;2024-03-06T16:34:15;12.73;;;11.43;;
7747;SDS011;3918;42.564;23.164;2024-03-06T16:36:46;11.80;;;10.70;;
7747;SDS011;3918;42.564;23.164;2024-03-06T16:39:13;10.68;;;9.68;;
7747;SDS011;3918;42.564;23.164;2024-03-06T16:41:40;10.07;;;9.10;;
7747;SDS011;3918;42.564;23.164;2024-03-06T16:44:08;12.52;;;9.43;;
7747;SDS011;3918;42.564;23.164;2024-03-06T16:46:36;11.40;;;10.30;;
7747;SDS011;3918;42.564;23.164;2024-03-06T16:49:04;12.07;;;10.85;;
7747;SDS011;3918;42.564;23.164;2024-03-06T16:51:30;10.98;;;9.98;;
7747;SDS011;3918;42.564;23.164;2024-03-06T16:53:58;10.63;;;9.63;;
7747;SDS011;3918;42.564;23.164;2024-03-06T16:56:26;13.05;;;11.65;;
7747;SDS011;3918;42.564;23.164;2024-03-06T16:58:53;13.45;;;11.45;;
7747;SDS011;3918;42.564;23.164;2024-03-06T17:01:20;10.60;;;9.07;;
7747;SDS011;3918;42.564;23.164;2024-03-06T17:03:47;12.32;;;9.93;;
7747;SDS011;3918;42.564;23.164;2024-03-06T17:06:16;13.45;;;9.68;;
7747;SDS011;3918;42.564;23.164;2024-03-06T17:08:43;11.23;;;9.18;;
7747;SDS011;3918;42.564;23.164;2024-03-06T17:11:10;12.25;;;11.10;;
7747;SDS011;3918;42.564;23.164;2024-03-06T17:13:37;11.52;;;9.82;;
7747;SDS011;3918;42.564;23.164;2024-03-06T17:16:05;13.57;;;10.13;;
7747;SDS011;3918;42.564;23.164;2024-03-06T17:18:32;14.45;;;9.95;;
7747;SDS011;3918;42.564;23.164;2024-03-06T17:21:00;10.40;;;9.32;;
7747;SDS011;3918;42.564;23.164;2024-03-06T17:23:28;11.15;;;8.90;;
7747;SDS011;3918;42.564;23.164;2024-03-06T17:25:55;11.43;;;8.75;;
7747;SDS011;3918;42.564;23.164;2024-03-06T17:28:22;8.25;;;7.43;;
7747;SDS011;3918;42.564;23.164;2024-03-06T17:30:49;9.30;;;8.27;;
7747;SDS011;3918;42.564;23.164;2024-03-06T17:33:16;11.82;;;8.27;;
7747;SDS011;3918;42.564;23.164;2024-03-06T17:35:43;9.10;;;8.32;;
7747;SDS011;3918;42.564;23.164;2024-03-06T17:38:11;9.85;;;8.85;;
7747;SDS011;3918;42.564;23.164;2024-03-06T17:40:40;16.92;;;8.32;;
7747;SDS011;3918;42.564;23.164;2024-03-06T17:43:08;12.23;;;9.50;;
7747;SDS011;3918;42.564;23.164;2024-03-06T17:45:35;10.98;;;8.68;;
7747;SDS011;3918;42.564;23.164;2024-03-06T17:48:02;12.23;;;10.13;;
7747;SDS011;3918;42.564;23.164;2024-03-06T17:50:29;12.45;;;9.60;;
7747;SDS011;3918;42.564;23.164;2024-03-06T17:52:58;12.43;;;9.90;;
7747;SDS011;3918;42.564;23.164;2024-03-06T17:55:25;12.25;;;9.30;;
7747;SDS011;3918;42.564;23.164;2024-03-06T17:57:53;10.82;;;9.25;;
7747;SDS011;3918;42.564;23.164;2024-03-06T18:00:19;11.45;;;9.07;;
7747;SDS011;3918;42.564;23.164;2024-03-06T18:02:47;10.88;;;9.10;;
7747;SDS011;3918;42.564;23.164;2024-03-06T18:05:14;10.82;;;8.98;;
7747;SDS011;3918;42.564;23.164;2024-03-06T18:07:41;14.00;;;10.15;;
7747;SDS011;3918;42.564;23.164;2024-03-06T18:10:09;11.43;;;9.18;;
7747;SDS011;3918;42.564;23.164;2024-03-06T18:12:37;14.27;;;10.50;;
7747;SDS011;3918;42.564;23.164;2024-03-06T18:15:06;16.52;;;12.50;;
7747;SDS011;3918;42.564;23.164;2024-03-06T18:17:33;19.85;;;14.80;;
7747;SDS011;3918;42.564;23.164;2024-03-06T18:20:02;18.33;;;14.57;;
7747;SDS011;3918;42.564;23.164;2024-03-06T18:22:29;16.77;;;11.15;;
7747;SDS011;3918;42.564;23.164;2024-03-06T18:24:57;14.32;;;11.32;;
7747;SDS011;3918;42.564;23.164;2024-03-06T18:27:28;20.60;;;11.65;;
7747;SDS011;3918;42.564;23.164;2024-03-06T18:29:55;13.52;;;10.68;;
7747;SDS011;3918;42.564;23.164;2024-03-06T18:32:23;10.93;;;9.82;;
7747;SDS011;3918;42.564;23.164;2024-03-06T18:34:50;12.77;;;9.93;;
7747;SDS011;3918;42.564;23.164;2024-03-06T18:37:20;13.57;;;9.60;;
7747;SDS011;3918;42.564;23.164;2024-03-06T18:39:47;13.40;;;10.63;;
7747;SDS011;3918;42.564;23.164;2024-03-06T18:42:14;15.27;;;11.10;;
7747;SDS011;3918;42.564;23.164;2024-03-06T18:44:41;11.30;;;10.20;;
7747;SDS011;3918;42.564;23.164;2024-03-06T18:47:08;12.50;;;9.60;;
7747;SDS011;3918;42.564;23.164;2024-03-06T18:49:36;12.43;;;11.10;;
7747;SDS011;3918;42.564;23.164;2024-03-06T18:52:03;13.18;;;10.55;;
7747;SDS011;3918;42.564;23.164;2024-03-06T18:54:30;12.40;;;10.13;;
7747;SDS011;3918;42.564;23.164;2024-03-06T18:56:59;10.40;;;9.38;;
7747;SDS011;3918;42.564;23.164;2024-03-06T18:59:26;9.40;;;8.32;;
7747;SDS011;3918;42.564;23.164;2024-03-06T19:01:53;9.88;;;8.20;;
7747;SDS011;3918;42.564;23.164;2024-03-06T19:04:20;11.52;;;8.95;;
7747;SDS011;3918;42.564;23.164;2024-03-06T19:06:49;10.13;;;9.23;;
7747;SDS011;3918;42.564;23.164;2024-03-06T19:09:15;10.32;;;9.25;;
7747;SDS011;3918;42.564;23.164;2024-03-06T19:11:44;10.40;;;9.30;;
7747;SDS011;3918;42.564;23.164;2024-03-06T19:14:10;11.13;;;10.13;;
7747;SDS011;3918;42.564;23.164;2024-03-06T19:16:37;10.38;;;9.38;;
7747;SDS011;3918;42.564;23.164;2024-03-06T19:19:04;13.07;;;8.75;;
7747;SDS011;3918;42.564;23.164;2024-03-06T19:21:31;14.63;;;8.80;;
7747;SDS011;3918;42.564;23.164;2024-03-06T19:23:59;9.02;;;8.15;;
7747;SDS011;3918;42.564;23.164;2024-03-06T19:26:26;9.82;;;8.43;;
7747;SDS011;3918;42.564;23.164;2024-03-06T19:28:53;9.98;;;8.98;;
7747;SDS011;3918;42.564;23.164;2024-03-06T19:31:20;9.50;;;8.27;;
7747;SDS011;3918;42.564;23.164;2024-03-06T19:33:47;11.68;;;8.43;;
7747;SDS011;3918;42.564;23.164;2024-03-06T19:36:13;9.75;;;8.80;;
7747;SDS011;3918;42.564;23.164;2024-03-06T19:38:40;11.10;;;9.40;;
7747;SDS011;3918;42.564;23.164;2024-03-06T19:41:08;27.70;;;20.42;;
7747;SDS011;3918;42.564;23.164;2024-03-06T19:43:35;26.50;;;20.02;;
7747;SDS011;3918;42.564;23.164;2024-03-06T19:46:03;27.55;;;22.30;;
7747;SDS011;3918;42.564;23.164;2024-03-06T19:48:30;26.02;;;18.25;;
7747;SDS011;3918;42.564;23.164;2024-03-06T19:50:58;21.60;;;18.25;;
7747;SDS011;3918;42.564;23.164;2024-03-06T19:53:26;19.90;;;15.15;;
7747;SDS011;3918;42.564;23.164;2024-03-06T19:55:52;17.67;;;13.80;;
7747;SDS011;3918;42.564;23.164;2024-03-06T19:58:20;16.88;;;12.43;;
7747;SDS011;3918;42.564;23.164;2024-03-06T20:00:47;15.82;;;12.07;;
